Time;durP1;ratioP1;P1;durP2;ratioP2;P2;SDS_P1;SDS_P2;PMS_P1;PMS_P2;Temp;Humidity;BMP_temperature;BMP_pressure;BME280_temperature;BME280_humidity;BME280_pressure;Samples;Min_cycle;Max_cycle;Signal;HPM_P1;HPM_P2
2021/08/27 00:01:12;;;;;;;13.17;8.97;;;;;;;19.92;75.81;94631.81;5047675;28;21012;-73
2021/08/27 00:03:39;;;;;;;13.00;10.13;;;;;;;19.89;76.42;94619.16;5050037;28;20600;-74
2021/08/27 00:06:06;;;;;;;14.20;9.47;;;;;;;20.03;75.81;94622.38;5049395;28;20667;-75
2021/08/27 00:08:33;;;;;;;15.47;10.03;;;;;;;20.18;74.92;94630.59;5039972;28;20196;-75
2021/08/27 00:11:00;;;;;;;12.27;10.20;;;;;;;20.05;75.43;94625.50;5029600;28;20200;-76
2021/08/27 00:13:28;;;;;;;18.60;11.00;;;;;;;20.00;76.28;94623.78;5030201;28;20189;-75
2021/08/27 00:15:55;;;;;;;16.87;11.63;;;;;;;19.93;76.53;94628.03;5043175;28;20254;-73
2021/08/27 00:18:22;;;;;;;14.80;11.57;;;;;;;19.93;76.90;94622.72;5034514;28;20216;-75
2021/08/27 00:20:49;;;;;;;16.80;12.70;;;;;;;19.82;77.86;94632.13;5049294;28;20204;-75
2021/08/27 00:23:16;;;;;;;17.37;12.43;;;;;;;19.87;77.69;94637.31;5049722;28;20195;-74
2021/08/27 00:25:43;;;;;;;21.13;13.33;;;;;;;19.97;77.38;94629.75;5049437;28;20734;-75
2021/08/27 00:28:10;;;;;;;18.37;13.17;;;;;;;19.99;77.31;94640.06;5035474;28;20200;-74
2021/08/27 00:30:37;;;;;;;20.80;13.60;;;;;;;20.04;76.91;94634.56;5049285;28;20195;-74
2021/08/27 00:33:04;;;;;;;21.27;15.07;;;;;;;20.07;76.95;94639.25;5050016;28;20200;-74
2021/08/27 00:35:30;;;;;;;17.93;14.07;;;;;;;20.11;77.20;94637.47;5035096;28;20192;-74
2021/08/27 00:37:57;;;;;;;20.77;15.83;;;;;;;20.14;76.81;94634.19;5049522;28;20214;-73
2021/08/27 00:40:25;;;;;;;19.20;16.07;;;;;;;20.15;77.08;94625.09;5034974;28;20200;-73
2021/08/27 00:42:52;;;;;;;24.17;16.80;;;;;;;20.12;77.64;94629.22;5039361;28;20248;-73
2021/08/27 00:45:19;;;;;;;19.97;16.07;;;;;;;20.14;77.10;94628.88;5045193;28;20687;-75
2021/08/27 00:47:46;;;;;;;21.30;16.70;;;;;;;19.98;78.57;94620.66;5049580;28;20194;-74
2021/08/27 00:50:13;;;;;;;18.83;16.60;;;;;;;20.15;77.66;94625.09;5047304;28;20204;-74
2021/08/27 00:52:40;;;;;;;21.93;17.07;;;;;;;20.01;78.07;94627.22;5049818;28;20191;-74
2021/08/27 00:55:08;;;;;;;18.93;16.50;;;;;;;19.92;78.57;94631.81;5049331;28;20695;-73
2021/08/27 00:57:36;;;;;;;18.73;16.40;;;;;;;19.87;78.95;94639.97;5031415;28;20201;-75
2021/08/27 01:00:04;;;;;;;27.37;16.63;;;;;;;20.08;77.72;94624.84;5040388;28;20215;-74
2021/08/27 01:02:31;;;;;;;19.17;15.17;;;;;;;20.07;77.28;94623.28;5049358;28;20196;-75
2021/08/27 01:04:59;;;;;;;20.83;15.27;;;;;;;20.10;77.37;94633.28;5049456;28;20220;-75
2021/08/27 01:07:30;;;;;;;18.07;15.10;;;;;;;20.04;76.93;94639.88;5051483;28;20199;-75
2021/08/27 01:10:14;;;;;;;18.57;12.77;;;;;;;20.05;76.08;94631.56;5051568;28;20196;-74
2021/08/27 01:12:50;;;;;;;15.00;12.70;;;;;;;20.24;75.07;94628.53;5053459;28;20644;-73
2021/08/27 01:15:27;;;;;;;15.27;11.87;;;;;;;20.25;75.09;94630.09;5052878;28;20231;-77
2021/08/27 01:18:03;;;;;;;15.27;11.50;;;;;;;20.15;75.04;94638.41;5052912;28;20199;-77
2021/08/27 01:20:36;;;;;;;20.73;10.27;;;;;;;19.95;75.97;94644.44;5053628;28;20230;-76
2021/08/27 01:23:23;;;;;;;11.53;9.97;;;;;;;19.92;76.04;94629.94;5053377;28;20207;-73
2021/08/27 01:25:56;;;;;;;12.80;9.67;;;;;;;19.89;76.72;94637.75;5052771;28;20223;-75
2021/08/27 01:28:25;;;;;;;10.43;9.33;;;;;;;19.54;77.28;94599.13;5053042;28;20192;-74
2021/08/27 01:31:35;;;;;;;15.53;9.17;;;;;;;19.69;77.41;94627.84;5052596;28;20534;-75
2021/08/27 01:34:28;;;;;;;14.20;9.10;;;;;;;19.70;77.20;94632.03;5032679;28;20689;-75
2021/08/27 01:36:56;;;;;;;9.67;8.37;;;;;;;19.40;77.98;94625.06;5035042;28;20201;-73
2021/08/27 01:39:34;;;;;;;9.47;8.40;;;;;;;19.72;76.85;94632.50;5052804;28;20215;-73
2021/08/27 01:42:03;;;;;;;11.10;8.73;;;;;;;19.58;77.49;94642.56;5038245;28;20220;-73
2021/08/27 01:44:31;;;;;;;12.73;9.00;;;;;;;19.44;78.34;94655.25;5052787;28;20319;-75
2021/08/27 01:47:02;;;;;;;12.80;9.07;;;;;;;19.41;78.65;94667.31;5050294;28;20200;-74
2021/08/27 01:49:30;;;;;;;13.17;8.43;;;;;;;19.28;79.05;94659.47;5040146;28;20192;-73
2021/08/27 01:52:03;;;;;;;16.33;9.13;;;;;;;19.25;79.50;94654.78;5054549;28;20189;-72
2021/08/27 01:54:30;;;;;;;14.83;8.83;;;;;;;19.19;79.67;94630.28;5054823;28;20200;-72
2021/08/27 01:56:58;;;;;;;25.63;10.63;;;;;;;19.39;80.37;94644.78;5043047;28;20185;-74
2021/08/27 01:59:30;;;;;;;16.43;9.40;;;;;;;19.46;79.68;94647.75;5050669;28;20193;-72
2021/08/27 02:01:58;;;;;;;13.67;8.53;;;;;;;19.36;80.32;94645.44;5031975;28;20223;-75
2021/08/27 02:04:26;;;;;;;14.43;8.20;;;;;;;19.37;79.34;94641.66;5031818;28;20224;-73
2021/08/27 02:06:54;;;;;;;19.33;8.97;;;;;;;19.14;80.36;94647.13;5041980;28;20231;-73
2021/08/27 02:09:21;;;;;;;16.23;8.43;;;;;;;19.06;81.73;94647.94;5051985;28;20943;-74
2021/08/27 02:11:49;;;;;;;15.40;9.63;;;;;;;18.79;83.53;94636.84;5042413;28;20229;-75
2021/08/27 02:14:16;;;;;;;14.57;9.03;;;;;;;18.90;82.33;94609.66;5045670;28;20196;-71
2021/08/27 02:16:43;;;;;;;14.63;8.97;;;;;;;19.07;82.63;94622.94;5031402;28;20523;-74
2021/08/27 02:19:11;;;;;;;16.27;8.93;;;;;;;19.15;82.10;94631.97;5031933;28;20575;-71
2021/08/27 02:21:45;;;;;;;17.13;8.73;;;;;;;19.26;81.96;94630.56;5043900;28;20660;-72
2021/08/27 02:24:15;;;;;;;11.97;8.37;;;;;;;19.31;81.66;94633.06;5031878;28;20667;-72
2021/08/27 02:26:44;;;;;;;13.03;8.70;;;;;;;19.53;80.51;94624.09;5034070;28;20454;-70
2021/08/27 02:29:14;;;;;;;13.53;9.03;;;;;;;19.50;80.40;94624.75;5041623;28;20205;-70
2021/08/27 02:31:45;;;;;;;15.10;9.37;;;;;;;19.43;81.20;94651.03;5047178;28;20203;-71
2021/08/27 02:34:15;;;;;;;16.60;9.83;;;;;;;19.40;81.35;94651.66;5051357;28;20200;-74
2021/08/27 02:36:45;;;;;;;13.97;10.40;;;;;;;19.48;81.11;94642.88;5036499;28;20675;-72
2021/08/27 02:39:16;;;;;;;16.07;11.40;;;;;;;19.58;81.03;94626.63;5043261;28;20201;-70
2021/08/27 02:41:43;;;;;;;17.73;11.07;;;;;;;19.54;80.82;94620.38;5031233;28;20260;-68
2021/08/27 02:44:10;;;;;;;14.43;11.30;;;;;;;19.44;81.22;94618.03;5051204;28;20594;-73
2021/08/27 02:46:37;;;;;;;20.87;13.03;;;;;;;18.97;83.77;94625.91;5050448;28;20192;-71
2021/08/27 02:49:04;;;;;;;17.87;12.83;;;;;;;19.34;82.59;94623.72;5050420;28;20196;-72
2021/08/27 02:51:41;;;;;;;17.73;12.73;;;;;;;19.49;81.69;94628.53;5040846;28;20212;-71
2021/08/27 02:54:13;;;;;;;16.70;13.37;;;;;;;19.53;81.14;94632.09;5045078;28;20621;-72
2021/08/27 02:56:42;;;;;;;16.80;12.03;;;;;;;19.50;80.63;94641.50;5030193;28;20712;-72
2021/08/27 02:59:14;;;;;;;17.87;11.67;;;;;;;19.63;80.21;94645.84;5030672;28;20613;-70
2021/08/27 03:01:52;;;;;;;17.20;12.33;;;;;;;19.80;79.24;94635.13;5039917;28;20250;-70
2021/08/27 03:04:36;;;;;;;17.23;12.77;;;;;;;19.71;79.93;94638.91;5036708;28;20235;-73
2021/08/27 03:07:06;;;;;;;21.97;12.67;;;;;;;19.80;79.59;94651.06;5037966;28;20197;-71
2021/08/27 03:09:52;;;;;;;15.03;11.97;;;;;;;19.77;79.84;94650.94;5044458;28;20189;-70
2021/08/27 03:12:27;;;;;;;18.70;12.93;;;;;;;19.78;79.41;94639.22;5030289;28;20201;-68
2021/08/27 03:14:57;;;;;;;17.97;13.07;;;;;;;19.51;80.66;94639.59;5037169;28;20659;-70
2021/08/27 03:17:31;;;;;;;15.33;12.77;;;;;;;19.43;80.89;94619.94;5039164;28;20208;-71
2021/08/27 03:20:06;;;;;;;16.40;12.40;;;;;;;19.39;82.00;94615.56;5030459;28;20189;-72
2021/08/27 03:22:45;;;;;;;16.33;13.00;;;;;;;19.50;81.57;94619.44;5041000;28;20579;-72
2021/08/27 03:25:17;;;;;;;17.83;13.23;;;;;;;19.49;81.38;94623.22;5035525;28;20309;-70
2021/08/27 03:27:50;;;;;;;16.20;13.00;;;;;;;19.53;81.46;94621.44;5050359;28;20196;-72
2021/08/27 03:30:20;;;;;;;15.73;12.33;;;;;;;19.50;81.29;94614.13;5045130;28;20205;-70
2021/08/27 03:32:51;;;;;;;18.63;13.10;;;;;;;19.49;81.08;94623.22;5041484;28;20211;-70
2021/08/27 03:35:20;;;;;;;17.27;14.33;;;;;;;19.36;81.88;94618.84;5035510;28;20201;-72
2021/08/27 03:37:49;;;;;;;17.43;13.27;;;;;;;19.38;81.66;94633.38;5050087;28;20224;-74
2021/08/27 03:40:18;;;;;;;16.03;13.00;;;;;;;19.50;81.32;94635.38;5035231;28;20192;-71
2021/08/27 03:42:46;;;;;;;19.00;13.90;;;;;;;19.20;82.43;94635.25;5040533;28;20439;-73
2021/08/27 03:45:15;;;;;;;15.40;12.90;;;;;;;19.26;82.16;94635.09;5043257;28;20231;-70
2021/08/27 03:47:43;;;;;;;17.13;13.53;;;;;;;19.25;82.41;94636.19;5038268;28;20204;-71
2021/08/27 03:50:12;;;;;;;13.90;12.10;;;;;;;19.27;82.37;94631.34;5049584;28;20322;-70
2021/08/27 03:52:42;;;;;;;17.10;12.67;;;;;;;19.43;81.84;94640.41;5049230;28;20208;-70
2021/08/27 03:55:13;;;;;;;15.27;12.57;;;;;;;19.38;81.84;94648.56;5049636;28;20205;-73
2021/08/27 03:57:42;;;;;;;15.17;12.60;;;;;;;19.54;81.20;94661.03;5049723;28;20200;-72
2021/08/27 04:00:10;;;;;;;16.43;12.53;;;;;;;19.59;80.65;94649.44;5049709;28;20196;-70
2021/08/27 04:02:40;;;;;;;15.80;12.57;;;;;;;19.58;80.82;94629.28;5045817;28;20209;-70
2021/08/27 04:05:16;;;;;;;14.93;13.30;;;;;;;19.62;80.86;94632.84;5039848;28;20328;-71
2021/08/27 04:07:43;;;;;;;17.63;12.30;;;;;;;19.60;80.90;94621.75;5046134;28;20188;-71
2021/08/27 04:10:13;;;;;;;17.57;13.40;;;;;;;19.43;81.54;94624.47;5029235;28;20725;-69
2021/08/27 04:12:41;;;;;;;15.83;13.43;;;;;;;19.29;82.46;94629.91;5029980;28;20204;-72
2021/08/27 04:15:10;;;;;;;16.87;14.17;;;;;;;19.26;82.53;94646.50;5029729;28;20680;-74
2021/08/27 04:17:39;;;;;;;15.57;13.97;;;;;;;19.18;83.14;94640.09;5042544;28;20562;-73
2021/08/27 04:20:09;;;;;;;17.03;13.90;;;;;;;19.39;81.97;94650.09;5049596;28;20190;-71
2021/08/27 04:22:36;;;;;;;18.23;14.77;;;;;;;19.50;81.49;94656.66;5049673;28;20188;-72
2021/08/27 04:25:03;;;;;;;19.00;15.00;;;;;;;19.34;82.74;94652.94;5032219;28;20316;-70
2021/08/27 04:27:31;;;;;;;16.13;14.43;;;;;;;19.16;83.26;94652.91;5039493;28;20220;-72
2021/08/27 04:29:57;;;;;;;17.13;14.53;;;;;;;19.37;82.88;94652.28;5049446;28;20443;-70
2021/08/27 04:32:24;;;;;;;16.90;14.27;;;;;;;19.47;82.58;94652.72;5041029;28;20193;-70
2021/08/27 04:34:51;;;;;;;15.80;13.80;;;;;;;19.45;82.39;94659.47;5043488;28;20196;-72
2021/08/27 04:37:18;;;;;;;18.70;14.53;;;;;;;19.50;82.16;94648.66;5049472;28;20201;-69
2021/08/27 04:39:45;;;;;;;16.80;13.90;;;;;;;19.52;82.17;94652.59;5053936;28;20262;-70
2021/08/27 04:42:12;;;;;;;17.50;14.53;;;;;;;19.49;82.22;94663.06;5056803;28;20296;-72
2021/08/27 04:44:39;;;;;;;16.43;14.70;;;;;;;19.63;81.96;94650.38;5052978;28;20270;-69
2021/08/27 04:47:06;;;;;;;15.77;14.07;;;;;;;19.58;81.91;94658.50;5048992;28;20658;-72
2021/08/27 04:49:33;;;;;;;16.70;13.70;;;;;;;19.52;82.09;94654.44;5033515;28;20201;-70
2021/08/27 04:52:00;;;;;;;16.40;14.57;;;;;;;19.43;81.54;94630.56;5046727;28;20283;-72
2021/08/27 04:54:27;;;;;;;16.43;13.60;;;;;;;19.78;80.93;94652.50;5039185;28;20693;-71
2021/08/27 04:56:54;;;;;;;18.10;14.87;;;;;;;19.82;80.41;94656.06;5052518;28;20211;-70
2021/08/27 04:59:21;;;;;;;16.47;14.37;;;;;;;19.83;80.64;94649.66;5048277;28;20284;-71
2021/08/27 05:01:48;;;;;;;16.87;14.00;;;;;;;19.91;80.06;94651.50;5042175;28;20686;-72
2021/08/27 05:04:15;;;;;;;17.77;15.37;;;;;;;19.89;80.60;94645.75;5052751;28;20698;-72
2021/08/27 05:06:42;;;;;;;17.67;15.07;;;;;;;19.89;80.67;94656.38;5043991;28;20232;-71
2021/08/27 05:09:09;;;;;;;16.13;14.27;;;;;;;19.79;81.10;94660.16;5033935;28;20235;-73
2021/08/27 05:11:36;;;;;;;24.90;21.67;;;;;;;19.78;81.98;94660.47;5052446;28;20638;-72
2021/08/27 05:14:03;;;;;;;23.30;18.73;;;;;;;19.77;81.73;94656.25;5052725;28;20204;-73
2021/08/27 05:16:30;;;;;;;23.70;19.37;;;;;;;19.75;81.76;94659.22;5032592;28;20235;-70
2021/08/27 05:18:57;;;;;;;22.50;18.17;;;;;;;19.85;81.53;94658.09;5041992;28;20207;-70
2021/08/27 05:21:24;;;;;;;18.87;16.87;;;;;;;19.98;80.62;94651.81;5050273;28;20255;-74
2021/08/27 05:23:52;;;;;;;18.57;16.67;;;;;;;19.97;80.09;94658.22;5034079;28;20627;-73
2021/08/27 05:26:19;;;;;;;20.53;16.60;;;;;;;19.85;79.80;94642.91;5032102;28;20687;-71
2021/08/27 05:28:46;;;;;;;19.33;17.23;;;;;;;19.83;80.46;94661.09;5052832;28;20577;-72
2021/08/27 05:31:15;;;;;;;17.60;15.53;;;;;;;19.98;80.52;94654.47;5052607;28;20192;-72
2021/08/27 05:33:42;;;;;;;19.10;14.00;;;;;;;20.03;79.72;94665.72;5052138;28;20547;-74
2021/08/27 05:36:09;;;;;;;17.43;14.40;;;;;;;20.08;79.63;94662.88;5052183;28;20709;-73
2021/08/27 05:38:37;;;;;;;17.43;14.27;;;;;;;20.04;80.35;94655.81;5035072;28;20201;-74
2021/08/27 05:41:05;;;;;;;18.70;14.93;;;;;;;20.01;80.69;94661.78;5042160;28;20232;-72
2021/08/27 05:43:33;;;;;;;17.97;13.47;;;;;;;20.21;80.27;94676.28;5050861;28;20195;-73
2021/08/27 05:46:00;;;;;;;16.43;12.80;;;;;;;20.28;80.03;94677.34;5031743;28;20275;-74
2021/08/27 05:48:28;;;;;;;13.90;11.83;;;;;;;20.40;79.21;94674.00;5046410;28;20197;-74
2021/08/27 05:50:55;;;;;;;15.80;13.30;;;;;;;20.28;79.05;94666.69;5032745;28;20197;-74
2021/08/27 05:53:22;;;;;;;20.30;16.83;;;;;;;20.46;79.00;94673.50;5043618;28;20196;-75
2021/08/27 05:55:49;;;;;;;22.67;19.10;;;;;;;20.50;79.18;94668.31;5046861;28;20185;-75
2021/08/27 05:58:16;;;;;;;27.53;24.07;;;;;;;20.30;79.59;94650.41;5041919;28;20208;-76
2021/08/27 06:00:43;;;;;;;26.90;24.00;;;;;;;20.34;80.51;94665.44;5051682;28;20654;-73
2021/08/27 06:03:10;;;;;;;21.43;17.83;;;;;;;20.32;80.63;94667.63;5051984;28;20230;-74
2021/08/27 06:05:38;;;;;;;22.17;17.80;;;;;;;20.61;81.82;94680.13;5037524;28;20634;-74
2021/08/27 06:08:05;;;;;;;15.37;13.73;;;;;;;20.86;79.39;94677.28;5038358;28;20199;-73
2021/08/27 06:10:32;;;;;;;14.03;11.87;;;;;;;20.84;78.70;94684.81;5051765;28;20228;-73
2021/08/27 06:12:59;;;;;;;14.20;11.47;;;;;;;20.90;78.13;94688.88;5032894;28;20235;-74
2021/08/27 06:15:26;;;;;;;14.23;12.73;;;;;;;21.02;78.01;94694.28;5042236;28;20204;-73
2021/08/27 06:17:53;;;;;;;13.87;12.27;;;;;;;20.98;78.91;94693.34;5049106;28;20200;-72
2021/08/27 06:20:20;;;;;;;12.97;11.37;;;;;;;20.88;79.15;94685.75;5051673;28;20272;-75
2021/08/27 06:22:47;;;;;;;15.57;12.37;;;;;;;20.89;79.49;94692.63;5051986;28;20199;-72
2021/08/27 06:25:14;;;;;;;13.03;11.57;;;;;;;21.01;78.08;94674.09;5051155;28;20677;-74
2021/08/27 06:27:41;;;;;;;13.70;12.10;;;;;;;21.17;78.25;94678.84;5051486;28;20196;-77
2021/08/27 06:30:09;;;;;;;14.20;12.43;;;;;;;21.08;78.36;94674.34;5051464;28;20204;-70
2021/08/27 06:32:36;;;;;;;14.17;11.80;;;;;;;21.18;77.22;94689.16;5041897;28;20197;-75
2021/08/27 06:35:08;;;;;;;16.53;13.17;;;;;;;20.90;79.50;94683.53;5035789;28;20292;-70
2021/08/27 06:40:20;;;;;;;14.20;11.80;;;;;;;21.01;78.36;94684.75;5035989;28;20208;-81
2021/08/27 06:42:48;;;;;;;14.23;11.90;;;;;;;21.09;77.91;94681.22;5044460;28;20239;-76
2021/08/27 06:45:15;;;;;;;14.53;11.70;;;;;;;21.14;77.84;94675.72;5039340;28;20580;-77
2021/08/27 06:47:42;;;;;;;13.07;11.70;;;;;;;21.41;76.87;94677.03;5053234;28;20192;-77
2021/08/27 06:50:09;;;;;;;14.37;11.87;;;;;;;21.50;76.89;94663.59;5051066;28;20278;-76
2021/08/27 06:52:36;;;;;;;14.07;11.17;;;;;;;21.52;76.13;94680.84;5033520;28;20185;-73
2021/08/27 06:55:04;;;;;;;16.53;10.73;;;;;;;21.71;75.03;94680.34;5043576;28;20197;-72
2021/08/27 06:57:31;;;;;;;13.57;10.20;;;;;;;21.75;74.15;94691.91;5039589;28;20195;-74
2021/08/27 06:59:59;;;;;;;12.23;10.83;;;;;;;21.55;73.32;94690.84;5052905;28;20212;-75
2021/08/27 07:02:26;;;;;;;15.13;12.03;;;;;;;21.11;74.35;94692.31;5039289;28;20197;-75
2021/08/27 07:04:55;;;;;;;12.63;11.33;;;;;;;21.38;74.77;94691.03;5059107;28;20567;-72
2021/08/27 07:07:22;;;;;;;14.63;12.40;;;;;;;21.59;75.25;94689.09;5054211;28;20566;-75
2021/08/27 07:09:49;;;;;;;15.37;11.70;;;;;;;21.87;74.55;94695.41;5053734;28;20291;-76
2021/08/27 07:12:15;;;;;;;15.30;13.70;;;;;;;21.83;76.22;94699.06;5037951;28;20201;-77
2021/08/27 07:14:43;;;;;;;13.00;11.70;;;;;;;21.39;73.37;94695.22;5045022;28;20205;-76
2021/08/27 07:17:10;;;;;;;12.63;11.33;;;;;;;21.14;74.39;94698.91;5030480;28;20594;-76
2021/08/27 07:19:37;;;;;;;13.93;12.20;;;;;;;21.33;76.38;94695.78;5044932;28;20200;-73
2021/08/27 07:22:04;;;;;;;20.87;13.60;;;;;;;21.67;75.04;94696.22;5038922;28;20580;-77
2021/08/27 07:24:32;;;;;;;15.13;13.47;;;;;;;21.69;74.88;94701.22;5050694;28;20243;-72
2021/08/27 07:26:59;;;;;;;15.97;12.97;;;;;;;21.88;74.23;94706.84;5035935;28;20274;-76
2021/08/27 07:29:26;;;;;;;14.63;12.67;;;;;;;21.86;71.56;94709.09;5050283;28;20554;-75
2021/08/27 07:31:53;;;;;;;15.80;13.63;;;;;;;21.71;70.93;94701.69;5050099;28;20280;-77
2021/08/27 07:34:21;;;;;;;17.00;13.97;;;;;;;21.82;70.92;94718.84;5039270;28;20551;-75
2021/08/27 07:36:48;;;;;;;16.33;14.10;;;;;;;21.83;71.66;94715.84;5046627;28;20193;-74
2021/08/27 07:39:15;;;;;;;15.47;12.90;;;;;;;22.12;71.38;94698.88;5050432;28;20247;-77
2021/08/27 07:41:42;;;;;;;17.07;13.53;;;;;;;22.13;69.97;94716.47;5049871;28;20635;-78
2021/08/27 07:44:09;;;;;;;16.93;13.33;;;;;;;22.43;69.13;94712.47;5050214;28;20200;-77
2021/08/27 07:46:39;;;;;;;18.50;14.23;;;;;;;22.51;69.84;94702.81;5036954;28;20244;-73
2021/08/27 07:49:05;;;;;;;16.20;13.93;;;;;;;22.78;69.99;94718.97;5029603;28;20193;-73
2021/08/27 07:51:32;;;;;;;17.93;14.10;;;;;;;22.78;69.26;94702.94;5030325;28;20276;-75
2021/08/27 07:53:59;;;;;;;16.37;14.60;;;;;;;23.09;69.12;94705.78;5032590;28;20197;-74
2021/08/27 07:56:26;;;;;;;18.83;15.73;;;;;;;23.19;67.56;94703.75;5049631;28;20290;-75
2021/08/27 07:58:53;;;;;;;18.57;14.97;;;;;;;23.33;67.71;94701.50;5049039;28;20224;-75
2021/08/27 08:01:20;;;;;;;17.17;15.13;;;;;;;23.21;68.14;94696.16;5029664;28;20189;-76
2021/08/27 08:03:48;;;;;;;17.60;14.73;;;;;;;23.37;67.44;94697.81;5030289;28;20189;-75
2021/08/27 08:06:14;;;;;;;16.23;13.80;;;;;;;23.74;66.64;94706.47;5048451;28;20717;-76
2021/08/27 08:08:41;;;;;;;17.73;15.50;;;;;;;23.16;66.03;94702.50;5049871;28;20686;-74
2021/08/27 08:11:08;;;;;;;17.90;14.83;;;;;;;23.34;66.81;94695.03;5031962;28;20805;-74
2021/08/27 08:13:35;;;;;;;18.57;14.80;;;;;;;23.69;65.08;94709.34;5030107;28;20200;-75
2021/08/27 08:16:02;;;;;;;18.87;15.20;;;;;;;23.85;65.11;94702.91;5030635;28;20188;-75
2021/08/27 08:18:30;;;;;;;22.57;15.23;;;;;;;23.80;63.99;94705.06;5048960;28;20199;-76
2021/08/27 08:21:00;;;;;;;18.73;15.33;;;;;;;23.58;62.68;94708.28;5049079;28;20204;-75
2021/08/27 08:23:27;;;;;;;19.30;15.83;;;;;;;23.76;66.42;94709.53;5049367;28;20193;-75
2021/08/27 08:25:54;;;;;;;17.23;15.33;;;;;;;23.75;64.47;94703.44;5038419;28;20279;-78
2021/08/27 08:28:21;;;;;;;18.47;16.27;;;;;;;23.81;66.15;94695.94;5046227;28;20223;-74
2021/08/27 08:30:51;;;;;;;20.07;16.30;;;;;;;24.10;65.53;94672.22;5049357;28;20682;-73
2021/08/27 08:33:19;;;;;;;17.00;15.20;;;;;;;24.10;62.24;94698.25;5049139;28;20252;-73
2021/08/27 08:35:47;;;;;;;20.30;16.00;;;;;;;23.75;62.79;94692.72;5049380;28;20184;-74
2021/08/27 08:38:17;;;;;;;18.60;16.50;;;;;;;24.08;62.25;94690.56;5035384;28;20271;-73
2021/08/27 08:40:46;;;;;;;19.57;17.13;;;;;;;24.08;62.87;94689.78;5049162;28;20211;-73
2021/08/27 08:43:14;;;;;;;19.30;16.27;;;;;;;23.93;64.79;94685.16;5036277;28;20580;-73
2021/08/27 08:45:47;;;;;;;18.53;15.27;;;;;;;23.80;64.31;94675.63;5034574;28;20204;-75
2021/08/27 08:48:18;;;;;;;21.13;16.60;;;;;;;24.04;64.72;94678.19;5049626;28;20189;-74
2021/08/27 08:50:45;;;;;;;17.17;15.37;;;;;;;24.27;63.79;94676.47;5031350;28;20221;-74
2021/08/27 08:53:13;;;;;;;19.77;16.07;;;;;;;24.65;63.75;94692.66;5029769;28;20197;-74
2021/08/27 08:55:41;;;;;;;20.10;16.00;;;;;;;24.66;63.13;94678.16;5031514;28;20510;-75
2021/08/27 08:58:09;;;;;;;19.00;16.00;;;;;;;24.56;61.40;94689.41;5049412;28;20659;-76
2021/08/27 09:00:39;;;;;;;17.77;15.80;;;;;;;24.84;59.72;94684.72;5034722;28;20200;-73
2021/08/27 09:03:06;;;;;;;20.97;16.37;;;;;;;24.97;59.26;94677.31;5030450;28;20251;-74
2021/08/27 09:05:33;;;;;;;19.17;16.03;;;;;;;25.09;60.13;94686.03;5042242;28;20211;-74
2021/08/27 09:08:00;;;;;;;18.80;15.53;;;;;;;25.09;59.47;94685.22;5035181;28;20292;-73
2021/08/27 09:10:27;;;;;;;18.63;15.27;;;;;;;24.97;61.81;94688.06;5036956;28;20197;-74
2021/08/27 09:13:05;;;;;;;18.23;15.03;;;;;;;25.11;60.71;94698.31;5043360;28;20205;-74
2021/08/27 09:15:32;;;;;;;19.83;16.17;;;;;;;24.93;62.07;94693.34;5028831;28;20205;-73
2021/08/27 09:18:05;;;;;;;17.63;15.33;;;;;;;25.16;59.69;94682.72;5030426;28;20252;-73
2021/08/27 09:20:32;;;;;;;17.77;15.50;;;;;;;25.38;58.87;94675.91;5040459;28;20211;-73
2021/08/27 09:23:03;;;;;;;17.53;15.50;;;;;;;25.39;56.87;94677.44;5029768;28;20268;-73
2021/08/27 09:25:33;;;;;;;16.50;14.70;;;;;;;25.50;57.28;94662.34;5041003;28;20206;-76
2021/08/27 09:28:15;;;;;;;17.23;14.67;;;;;;;25.55;57.86;94664.72;5029296;28;20197;-73
2021/08/27 09:30:54;;;;;;;17.20;15.40;;;;;;;25.82;57.84;94669.09;5030250;28;20201;-71
2021/08/27 09:33:34;;;;;;;17.13;15.13;;;;;;;25.69;56.71;94665.00;5046502;28;20231;-74
2021/08/27 09:36:05;;;;;;;18.73;15.00;;;;;;;25.96;58.19;94653.22;5041850;28;20204;-73
2021/08/27 09:38:37;;;;;;;18.83;14.47;;;;;;;26.10;58.38;94658.84;5038338;28;20216;-73
2021/08/27 09:41:12;;;;;;;16.10;14.23;;;;;;;26.19;56.17;94656.69;5042135;28;20233;-73
2021/08/27 09:43:50;;;;;;;16.53;13.63;;;;;;;26.14;56.13;94654.31;5049122;28;20200;-74
2021/08/27 09:46:43;;;;;;;16.43;14.53;;;;;;;26.48;54.84;94642.56;5051760;28;20212;-73
2021/08/27 09:49:29;;;;;;;18.70;14.83;;;;;;;26.48;54.11;94641.78;5037134;28;20201;-75
2021/08/27 09:51:58;;;;;;;18.23;14.03;;;;;;;26.39;54.94;94639.38;5038868;28;20205;-71
2021/08/27 09:54:28;;;;;;;14.80;13.23;;;;;;;26.76;53.22;94643.03;5038542;28;20203;-74
2021/08/27 09:57:00;;;;;;;16.70;12.63;;;;;;;26.92;51.93;94640.16;5039994;28;20271;-71
2021/08/27 09:59:34;;;;;;;17.50;13.77;;;;;;;27.06;53.21;94642.25;5051136;28;20667;-73
2021/08/27 10:02:03;;;;;;;14.97;13.17;;;;;;;27.20;53.15;94623.59;5039247;28;20189;-74
2021/08/27 10:04:31;;;;;;;15.32;13.10;;;;;;;27.02;51.45;94624.16;5046082;28;20190;-73
2021/08/27 10:06:58;;;;;;;15.10;12.37;;;;;;;26.96;50.66;94619.47;5031467;28;20257;-73
2021/08/27 10:09:51;;;;;;;13.23;11.73;;;;;;;27.00;50.33;94615.69;5049157;28;20203;-72
2021/08/27 10:12:18;;;;;;;14.43;12.10;;;;;;;27.33;50.20;94606.88;5051181;28;20262;-73
2021/08/27 10:14:46;;;;;;;17.80;12.57;;;;;;;27.35;50.55;94614.59;5051358;28;20181;-74
2021/08/27 10:17:14;;;;;;;13.77;12.37;;;;;;;27.71;50.06;94616.50;5048695;28;20197;-73
2021/08/27 10:19:41;;;;;;;16.77;12.93;;;;;;;27.91;49.78;94615.16;5037764;28;20200;-70
2021/08/27 10:22:08;;;;;;;12.63;11.27;;;;;;;27.47;47.76;94604.34;5051102;28;20200;-74
2021/08/27 10:24:34;;;;;;;15.38;12.25;;;;;;;27.56;48.92;94610.19;5051255;28;20192;-73
2021/08/27 10:27:02;;;;;;;16.53;13.90;;;;;;;27.90;50.81;94613.63;5050531;28;20248;-73
2021/08/27 10:29:29;;;;;;;18.07;12.27;;;;;;;27.93;48.81;94607.50;5051562;28;20233;-74
2021/08/27 10:31:56;;;;;;;15.10;12.30;;;;;;;27.97;49.55;94592.91;5036731;28;20681;-73
2021/08/27 10:34:43;;;;;;;13.47;11.27;;;;;;;28.14;47.93;94607.69;5051477;28;20193;-72
2021/08/27 10:37:43;;;;;;;13.70;11.77;;;;;;;27.82;47.97;94582.38;5045501;28;20679;-71
2021/08/27 10:40:22;;;;;;;12.50;11.30;;;;;;;28.13;48.58;94595.38;5047013;28;20226;-75
2021/08/27 10:43:00;;;;;;;13.17;10.90;;;;;;;27.96;47.62;94595.97;5041403;28;20216;-71
2021/08/27 10:45:33;;;;;;;12.97;11.63;;;;;;;27.53;47.62;94591.31;5050981;28;20724;-74
2021/08/27 10:48:16;;;;;;;13.27;11.90;;;;;;;27.61;47.72;94584.88;5041159;28;20303;-73
2021/08/27 10:50:46;;;;;;;13.23;11.90;;;;;;;27.25;48.35;94593.66;5049569;28;20196;-71
2021/08/27 10:53:33;;;;;;;12.87;11.50;;;;;;;27.61;48.50;94588.31;5040994;28;20198;-74
2021/08/27 10:56:01;;;;;;;13.87;10.83;;;;;;;27.99;45.24;94584.47;5035571;28;20200;-74
2021/08/27 10:58:46;;;;;;;15.17;11.83;;;;;;;28.02;43.80;94583.72;5040510;28;20217;-72
2021/08/27 11:01:32;;;;;;;12.20;10.60;;;;;;;27.86;44.17;94575.09;5035956;28;20197;-77
2021/08/27 11:04:24;;;;;;;14.30;11.53;;;;;;;27.94;46.02;94571.34;5037101;28;20243;-77
2021/08/27 11:06:54;;;;;;;13.27;11.30;;;;;;;27.82;45.57;94576.97;5050539;28;20255;-74
2021/08/27 11:09:23;;;;;;;13.63;11.83;;;;;;;27.64;46.51;94579.53;5036959;28;20200;-74
2021/08/27 11:12:26;;;;;;;13.07;10.60;;;;;;;27.99;45.60;94579.09;5050264;28;20236;-74
2021/08/27 11:14:55;;;;;;;14.30;10.73;;;;;;;28.43;43.87;94582.47;5044669;28;20271;-72
2021/08/27 11:17:22;;;;;;;12.93;10.83;;;;;;;28.49;43.56;94585.59;5030549;28;20193;-73
2021/08/27 11:19:55;;;;;;;12.93;10.30;;;;;;;28.44;41.84;94577.88;5033051;28;20280;-74
2021/08/27 11:22:26;;;;;;;11.70;10.20;;;;;;;28.42;44.38;94566.69;5049977;28;20289;-73
2021/08/27 11:25:02;;;;;;;14.50;11.43;;;;;;;28.85;42.74;94576.56;5050460;28;20214;-74
2021/08/27 11:27:30;;;;;;;12.43;9.27;;;;;;;28.85;42.13;94577.34;5040556;28;20239;-72
2021/08/27 11:29:59;;;;;;;12.83;10.10;;;;;;;28.50;40.63;94571.75;5032233;28;20189;-72
2021/08/27 11:32:26;;;;;;;12.67;9.30;;;;;;;28.70;41.25;94575.72;5041459;28;20280;-73
2021/08/27 11:35:05;;;;;;;11.73;10.13;;;;;;;28.73;40.97;94574.22;5044387;28;20211;-73